Time;durP1;ratioP1;P1;durP2;ratioP2;P2;SDS_P1;SDS_P2;PMS_P1;PMS_P2;Temp;Humidity;BMP_temperature;BMP_pressure;BME280_temperature;BME280_humidity;BME280_pressure;Samples;Min_cycle;Max_cycle;Signal;HPM_P1;HPM_P2
2022/07/19 00:02:09;;;;;;;4.13;3.00;;;;;;;20.60;100.00;101828.34;2606275;36;20436;-51
2022/07/19 00:04:38;;;;;;;4.00;2.60;;;;;;;20.62;100.00;101832.59;2608189;36;20031;-48
2022/07/19 00:07:06;;;;;;;4.75;2.83;;;;;;;20.57;100.00;101823.25;2606964;36;20444;-48
2022/07/19 00:09:35;;;;;;;5.00;2.70;;;;;;;20.53;100.00;101822.72;2606857;31;20042;-49
2022/07/19 00:12:03;;;;;;;6.18;2.55;;;;;;;20.49;100.00;101824.09;2608015;36;20037;-48
2022/07/19 00:14:31;;;;;;;3.13;2.53;;;;;;;20.44;100.00;101829.28;2606204;36;20038;-47
2022/07/19 00:17:02;;;;;;;4.85;2.35;;;;;;;20.40;100.00;101827.91;2606836;31;20696;-47
2022/07/19 00:19:30;;;;;;;6.22;2.67;;;;;;;20.42;100.00;101820.38;2608678;36;20039;-49
2022/07/19 00:21:59;;;;;;;4.25;3.20;;;;;;;20.44;100.00;101819.19;2611783;36;20442;-49
2022/07/19 00:24:27;;;;;;;4.15;2.50;;;;;;;20.34;100.00;101823.16;2610584;36;20038;-51
2022/07/19 00:26:55;;;;;;;5.07;2.65;;;;;;;20.36;100.00;101823.81;2607098;31;20038;-49
2022/07/19 00:29:24;;;;;;;3.50;2.75;;;;;;;20.28;100.00;101816.53;2607864;31;20439;-49
2022/07/19 00:31:52;;;;;;;4.57;2.92;;;;;;;20.16;100.00;101816.06;2606571;31;20456;-50
2022/07/19 00:34:23;;;;;;;5.30;2.90;;;;;;;20.23;100.00;101814.31;2607351;36;20023;-49
2022/07/19 00:36:51;;;;;;;5.32;2.88;;;;;;;20.19;100.00;101810.22;2606807;31;20555;-47
2022/07/19 00:39:19;;;;;;;4.50;3.00;;;;;;;20.17;100.00;101809.56;2606963;36;20439;-52
2022/07/19 00:41:48;;;;;;;9.18;4.05;;;;;;;20.12;100.00;101810.06;2608491;36;20034;-48
2022/07/19 00:44:16;;;;;;;4.47;3.13;;;;;;;20.15;100.00;101808.88;2609273;36;20045;-50
2022/07/19 00:46:45;;;;;;;4.30;2.97;;;;;;;20.08;100.00;101816.06;2609426;36;20034;-48
2022/07/19 00:49:13;;;;;;;4.25;2.70;;;;;;;20.04;100.00;101822.94;2611293;36;20034;-51
2022/07/19 00:51:46;;;;;;;3.47;2.60;;;;;;;20.03;100.00;101816.59;2611366;36;20042;-49
2022/07/19 00:54:16;;;;;;;4.95;2.83;;;;;;;20.04;100.00;101817.47;2609126;36;20030;-48
2022/07/19 00:56:46;;;;;;;3.50;2.80;;;;;;;19.94;100.00;101817.66;2609622;36;20041;-51
2022/07/19 00:59:15;;;;;;;5.05;2.90;;;;;;;19.95;100.00;101814.75;2608973;36;20061;-48
2022/07/19 01:01:44;;;;;;;5.75;3.13;;;;;;;19.91;100.00;101818.84;2608132;36;20107;-46
2022/07/19 01:04:13;;;;;;;4.88;2.58;;;;;;;19.91;100.00;101818.00;2610304;31;20038;-50
2022/07/19 01:06:43;;;;;;;;;;;;;;;19.90;100.00;101819.88;2605756;36;20058;-50
2022/07/19 01:09:12;;;;;;;4.70;2.85;;;;;;;19.90;100.00;101819.88;2608337;36;19977;-48
2022/07/19 01:11:41;;;;;;;4.40;3.05;;;;;;;19.86;100.00;101823.13;2610075;31;20473;-47
2022/07/19 01:14:10;;;;;;;4.05;2.67;;;;;;;19.83;100.00;101820.75;2597902;36;20030;-49
2022/07/19 01:16:38;;;;;;;5.50;3.03;;;;;;;19.75;100.00;101816.97;2609202;36;20034;-50
2022/07/19 01:19:08;;;;;;;4.93;3.05;;;;;;;19.72;100.00;101816.47;2610482;31;20053;-49
2022/07/19 01:21:39;;;;;;;5.18;2.72;;;;;;;19.69;100.00;101811.38;2606313;36;20571;-48
2022/07/19 01:24:08;;;;;;;5.60;2.92;;;;;;;19.74;100.00;101817.16;2603876;36;20034;-51
2022/07/19 01:26:36;;;;;;;4.13;3.20;;;;;;;19.72;100.00;101813.75;2608273;36;20339;-51
2022/07/19 01:29:05;;;;;;;6.35;2.75;;;;;;;19.68;100.00;101812.38;2606434;31;20556;-49
2022/07/19 01:31:34;;;;;;;4.15;3.08;;;;;;;19.59;100.00;101809.66;2607759;31;20097;-45
2022/07/19 01:34:02;;;;;;;5.00;2.92;;;;;;;19.58;100.00;101813.44;2607516;36;20076;-49
2022/07/19 01:36:30;;;;;;;6.15;3.15;;;;;;;19.56;100.00;101815.47;2611664;36;20126;-47
2022/07/19 01:39:01;;;;;;;4.53;2.60;;;;;;;19.52;100.00;101819.59;2608097;36;20035;-49
2022/07/19 01:41:30;;;;;;;4.85;3.00;;;;;;;19.49;100.00;101813.59;2609591;36;20034;-48
2022/07/19 01:43:58;;;;;;;5.50;3.00;;;;;;;19.52;100.00;101802.31;2610295;31;20050;-48
2022/07/19 01:46:26;;;;;;;4.72;2.92;;;;;;;19.55;100.00;101812.91;2608167;36;22155;-47
2022/07/19 01:48:55;;;;;;;3.60;2.58;;;;;;;19.50;100.00;101799.78;2606091;36;20917;-50
2022/07/19 01:51:23;;;;;;;5.38;3.40;;;;;;;19.46;100.00;101801.13;2607119;36;20030;-49
2022/07/19 01:53:52;;;;;;;3.90;3.00;;;;;;;19.46;100.00;101803.84;2607304;36;20046;-48
2022/07/19 01:56:23;;;;;;;5.82;3.10;;;;;;;19.45;100.00;101802.19;2604924;36;20049;-49
2022/07/19 01:58:51;;;;;;;4.50;3.00;;;;;;;19.48;100.00;101790.91;2607575;36;20150;-49
2022/07/19 02:01:19;;;;;;;4.38;3.10;;;;;;;19.41;100.00;101801.66;2609538;31;20067;-49
2022/07/19 02:03:52;;;;;;;6.53;3.15;;;;;;;19.34;100.00;101797.06;2608395;36;20065;-60
2022/07/19 02:06:21;;;;;;;6.25;3.03;;;;;;;19.36;100.00;101792.25;2607830;36;20035;-49
2022/07/19 02:08:49;;;;;;;4.13;2.90;;;;;;;19.31;100.00;101786.47;2607317;36;20406;-48
2022/07/19 02:14:01;;;;;;;5.22;2.83;;;;;;;19.29;100.00;101783.06;2606096;36;20302;-48
2022/07/19 02:16:30;;;;;;;4.10;2.70;;;;;;;19.23;100.00;101782.72;2607816;36;20038;-49
2022/07/19 02:18:58;;;;;;;6.03;3.28;;;;;;;19.19;100.00;101778.63;2607323;36;20582;-48
2022/07/19 02:21:26;;;;;;;3.92;2.90;;;;;;;19.14;100.00;101785.63;2608128;36;20114;-47
2022/07/19 02:23:55;;;;;;;6.05;3.25;;;;;;;19.13;100.00;101782.03;2607667;31;20034;-47
2022/07/19 02:26:24;;;;;;;5.13;2.85;;;;;;;19.09;100.00;101786.13;2605341;36;20142;-46
2022/07/19 02:28:53;;;;;;;4.10;2.80;;;;;;;19.07;100.00;101793.66;2611734;36;20578;-52
2022/07/19 02:31:24;;;;;;;5.68;3.08;;;;;;;19.03;100.00;101793.13;2608732;36;21604;-47
2022/07/19 02:33:53;;;;;;;3.75;3.08;;;;;;;19.01;100.00;101786.16;2607747;36;20039;-46
2022/07/19 02:36:21;;;;;;;4.90;3.40;;;;;;;19.03;100.00;101784.09;2610425;36;20038;-50
2022/07/19 02:38:49;;;;;;;4.80;3.00;;;;;;;18.98;100.00;101783.75;2608701;36;20042;-47
2022/07/19 02:41:17;;;;;;;5.55;2.60;;;;;;;18.92;100.00;101782.56;2612224;36;20047;-48
2022/07/19 02:43:46;;;;;;;5.78;2.88;;;;;;;18.90;100.00;101780.00;2612089;36;20038;-50
2022/07/19 02:46:14;;;;;;;5.35;3.78;;;;;;;18.89;100.00;101777.44;2610999;36;20034;-52
2022/07/19 02:48:45;;;;;;;4.22;2.85;;;;;;;18.86;100.00;101785.94;2609806;36;20077;-45
2022/07/19 02:51:14;;;;;;;6.47;2.90;;;;;;;18.94;100.00;101793.28;2611315;36;20031;-52
2022/07/19 02:53:42;;;;;;;4.13;2.80;;;;;;;18.96;100.00;101783.06;2613041;31;20034;-47
2022/07/19 02:56:11;;;;;;;5.50;3.08;;;;;;;18.89;100.00;101783.72;2609375;36;20065;-49
2022/07/19 02:58:39;;;;;;;5.22;3.03;;;;;;;18.81;100.00;101788.28;2610803;36;20030;-47
2022/07/19 03:01:07;;;;;;;5.70;3.30;;;;;;;18.77;100.00;101790.50;2608739;36;20046;-49
2022/07/19 03:03:47;;;;;;;4.72;2.80;;;;;;;18.66;100.00;101785.38;2609200;36;20038;-49
2022/07/19 03:06:20;;;;;;;4.65;3.25;;;;;;;18.65;100.00;101781.75;2613788;36;20037;-49
2022/07/19 03:08:49;;;;;;;4.85;2.88;;;;;;;18.72;100.00;101784.69;2612822;36;20038;-47
2022/07/19 03:11:18;;;;;;;5.40;3.10;;;;;;;18.76;100.00;101788.81;2613370;36;20034;-51
2022/07/19 03:13:46;;;;;;;4.93;3.03;;;;;;;18.74;100.00;101790.81;2613205;36;20038;-47
2022/07/19 03:16:14;;;;;;;7.10;2.57;;;;;;;18.75;100.00;101784.34;2610867;36;20046;-52
2022/07/19 03:18:42;;;;;;;8.43;3.33;;;;;;;18.72;100.00;101784.69;2608694;36;20344;-49
2022/07/19 03:21:11;;;;;;;4.00;2.72;;;;;;;18.67;100.00;101792.53;2612812;36;20589;-47
2022/07/19 03:23:42;;;;;;;4.15;2.85;;;;;;;18.69;100.00;101785.03;2615346;31;20516;-48
2022/07/19 03:26:10;;;;;;;4.45;2.60;;;;;;;18.71;100.00;101788.44;2615446;31;20397;-48
2022/07/19 03:28:38;;;;;;;5.13;2.75;;;;;;;18.62;100.00;101790.28;2614993;36;20042;-46
2022/07/19 03:31:07;;;;;;;4.35;3.00;;;;;;;18.51;100.00;101775.09;2614573;36;20443;-49
2022/07/19 03:33:35;;;;;;;5.00;3.25;;;;;;;18.51;100.00;101776.97;2615114;36;20446;-53
2022/07/19 03:36:04;;;;;;;4.65;2.90;;;;;;;18.51;100.00;101782.44;2614371;36;20074;-47
2022/07/19 03:38:32;;;;;;;5.40;3.35;;;;;;;18.52;100.00;101782.28;2614846;36;20030;-50
2022/07/19 03:41:04;;;;;;;2.95;2.50;;;;;;;18.44;100.00;101786.84;2614538;36;20042;-47
2022/07/19 03:43:32;;;;;;;4.68;3.25;;;;;;;18.43;100.00;101785.13;2615361;36;20022;-47
2022/07/19 03:46:00;;;;;;;4.03;2.90;;;;;;;18.44;100.00;101782.22;2615138;36;20065;-47
2022/07/19 03:48:29;;;;;;;4.07;2.95;;;;;;;18.42;100.00;101778.81;2615212;36;20045;-48
2022/07/19 03:50:57;;;;;;;5.33;2.90;;;;;;;18.38;100.00;101778.28;2615472;31;20468;-48
2022/07/19 03:53:25;;;;;;;6.00;2.97;;;;;;;18.30;100.00;101780.13;2614102;36;20330;-51
2022/07/19 03:55:53;;;;;;;6.20;3.30;;;;;;;18.31;100.00;101768.22;2613895;36;20693;-47
2022/07/19 03:58:24;;;;;;;5.18;3.30;;;;;;;18.35;100.00;101780.50;2613871;36;20338;-47
2022/07/19 04:00:53;;;;;;;6.00;3.30;;;;;;;18.34;100.00;101774.22;2614895;31;20520;-48
2022/07/19 04:03:22;;;;;;;5.63;3.92;;;;;;;18.39;100.00;101779.16;2613823;36;20054;-52
2022/07/19 04:05:50;;;;;;;5.85;3.45;;;;;;;18.33;100.00;101769.78;2614533;36;20026;-47
2022/07/19 04:08:18;;;;;;;7.37;3.53;;;;;;;18.36;100.00;101769.44;2615212;31;20069;-52
2022/07/19 04:10:46;;;;;;;4.63;3.63;;;;;;;18.43;100.00;101769.63;2614329;36;20307;-49
2022/07/19 04:13:15;;;;;;;6.47;3.37;;;;;;;18.41;100.00;101771.66;2615608;36;20653;-48
2022/07/19 04:15:46;;;;;;;4.83;3.10;;;;;;;18.49;100.00;101771.69;2614775;31;20308;-48
2022/07/19 04:18:14;;;;;;;8.18;3.28;;;;;;;18.54;100.00;101771.19;2614656;36;20322;-49
2022/07/19 04:20:42;;;;;;;5.30;3.15;;;;;;;18.53;100.00;101770.31;2614543;36;20035;-47
2022/07/19 04:23:11;;;;;;;4.40;3.35;;;;;;;18.55;100.00;101765.56;2614784;36;20034;-47
2022/07/19 04:25:39;;;;;;;3.75;3.05;;;;;;;18.71;100.00;101772.06;2614408;36;20057;-48
2022/07/19 04:28:07;;;;;;;4.87;2.97;;;;;;;18.75;100.00;101765.25;2614678;36;20023;-46
2022/07/19 04:30:36;;;;;;;5.45;3.00;;;;;;;18.85;100.00;101768.69;2615162;36;20652;-47
2022/07/19 04:33:07;;;;;;;3.65;2.88;;;;;;;19.15;100.00;101768.22;2614205;36;20567;-48
2022/07/19 04:35:35;;;;;;;4.75;3.05;;;;;;;19.18;100.00;101768.72;2614006;36;20079;-49
2022/07/19 04:38:03;;;;;;;4.28;2.90;;;;;;;19.15;100.00;101763.63;2614519;36;20065;-46
2022/07/19 04:40:31;;;;;;;6.03;3.05;;;;;;;19.23;100.00;101762.78;2614672;36;20041;-48
2022/07/19 04:43:00;;;;;;;5.72;3.40;;;;;;;19.45;100.00;101761.22;2614764;36;20548;-49
2022/07/19 04:45:28;;;;;;;5.28;2.90;;;;;;;19.50;100.00;101767.00;2614303;36;20035;-48
2022/07/19 04:47:57;;;;;;;2.95;2.40;;;;;;;19.66;100.00;101776.22;2614642;36;20031;-50
2022/07/19 04:50:28;;;;;;;4.68;2.58;;;;;;;19.66;100.00;101771.59;2614178;36;20038;-50
2022/07/19 04:52:56;;;;;;;3.78;2.60;;;;;;;19.67;100.00;101761.50;2614370;36;20030;-51
2022/07/19 04:55:24;;;;;;;4.93;2.70;;;;;;;19.58;100.00;101764.28;2614487;36;20030;-47
2022/07/19 04:57:53;;;;;;;2.83;2.30;;;;;;;19.64;100.00;101761.84;2614555;31;20042;-46
2022/07/19 05:00:21;;;;;;;3.05;2.53;;;;;;;19.71;100.00;101765.59;2614520;36;20030;-48
2022/07/19 05:02:49;;;;;;;5.05;2.42;;;;;;;19.92;100.00;101765.91;2614549;36;20061;-48
2022/07/19 05:05:18;;;;;;;4.50;2.65;;;;;;;19.99;100.00;101760.59;2614839;36;20065;-48
2022/07/19 05:07:49;;;;;;;5.13;2.33;;;;;;;20.21;100.00;101764.44;2615252;36;20922;-50
2022/07/19 05:10:18;;;;;;;3.08;2.30;;;;;;;20.31;100.00;101759.59;2615511;36;20046;-49
2022/07/19 05:12:46;;;;;;;6.00;2.65;;;;;;;20.39;100.00;101766.94;2615145;36;20038;-48
2022/07/19 05:15:14;;;;;;;4.53;2.50;;;;;;;20.45;100.00;101760.72;2615934;36;20468;-49
2022/07/19 05:17:43;;;;;;;3.10;2.30;;;;;;;20.57;100.00;101761.19;2616378;36;20502;-50
2022/07/19 05:20:15;;;;;;;5.30;2.35;;;;;;;20.60;100.00;101754.50;2615527;36;20423;-47
2022/07/19 05:22:43;;;;;;;4.95;2.40;;;;;;;20.72;100.00;101760.44;2616041;36;20380;-47
2022/07/19 05:25:14;;;;;;;3.25;2.55;;;;;;;20.82;100.00;101758.31;2615567;36;20054;-46
2022/07/19 05:27:43;;;;;;;3.78;2.53;;;;;;;20.86;100.00;101762.38;2615744;36;20046;-52
2022/07/19 05:30:13;;;;;;;3.47;2.30;;;;;;;20.86;100.00;101756.88;2615004;36;20045;-49
2022/07/19 05:32:41;;;;;;;4.05;2.63;;;;;;;20.89;100.00;101755.69;2615469;36;20038;-47
2022/07/19 05:35:11;;;;;;;4.88;2.28;;;;;;;21.03;100.00;101752.16;2614335;36;20039;-48
2022/07/19 05:37:39;;;;;;;4.18;2.30;;;;;;;21.17;100.00;101753.22;2615136;36;20571;-49
2022/07/19 05:40:09;;;;;;;3.47;2.25;;;;;;;21.21;100.00;101751.81;2615111;36;20503;-49
2022/07/19 05:42:40;;;;;;;3.88;2.08;;;;;;;21.39;100.00;101756.94;2615491;36;20026;-50
2022/07/19 05:45:10;;;;;;;4.05;2.00;;;;;;;21.50;100.00;101752.94;2615127;31;20072;-48
2022/07/19 05:47:38;;;;;;;3.92;2.33;;;;;;;21.48;100.00;101749.50;2615187;36;20041;-47
2022/07/19 05:50:08;;;;;;;2.78;2.20;;;;;;;21.81;100.00;101754.69;2615160;36;20038;-48
2022/07/19 05:52:36;;;;;;;3.00;2.03;;;;;;;21.80;100.00;101758.47;2615127;36;20034;-52
2022/07/19 05:55:04;;;;;;;4.93;2.40;;;;;;;21.86;100.00;101753.09;2615102;36;20038;-53
2022/07/19 05:57:33;;;;;;;5.15;2.58;;;;;;;21.92;100.00;101751.44;2614891;36;20031;-51
2022/07/19 06:00:05;;;;;;;2.67;2.13;;;;;;;21.97;100.00;101759.13;2615582;36;20038;-47
2022/07/19 06:02:33;;;;;;;6.65;2.33;;;;;;;22.00;100.00;101765.06;2616273;31;20531;-48
2022/07/19 06:05:02;;;;;;;3.88;2.47;;;;;;;22.13;100.00;101760.78;2615488;31;20035;-52
2022/07/19 06:07:30;;;;;;;4.10;2.30;;;;;;;22.22;100.00;101763.25;2615458;36;20030;-55
2022/07/19 06:09:59;;;;;;;5.45;2.28;;;;;;;22.33;100.00;101767.41;2615832;31;20568;-48
2022/07/19 06:12:27;;;;;;;7.43;2.38;;;;;;;22.50;100.00;101764.47;2615165;31;20042;-47
2022/07/19 06:14:55;;;;;;;3.85;1.85;;;;;;;22.71;100.00;101761.72;2615541;31;20047;-47
2022/07/19 06:17:26;;;;;;;2.72;1.98;;;;;;;22.88;100.00;101758.75;2614425;36;20043;-51
2022/07/19 06:19:54;;;;;;;4.53;2.05;;;;;;;23.07;100.00;101755.34;2614986;31;20039;-48
2022/07/19 06:22:23;;;;;;;10.00;2.30;;;;;;;23.21;100.00;101758.22;2614933;36;20055;-50
2022/07/19 06:24:51;;;;;;;3.35;2.03;;;;;;;23.60;100.00;101752.19;2615189;36;20037;-47
2022/07/19 06:27:19;;;;;;;3.03;2.20;;;;;;;23.80;100.00;101755.06;2615280;36;20053;-50
2022/07/19 06:29:48;;;;;;;3.75;2.35;;;;;;;23.99;100.00;101757.31;2615263;36;20073;-49
2022/07/19 06:32:16;;;;;;;4.05;2.00;;;;;;;24.38;100.00;101756.66;2615441;36;20057;-47
2022/07/19 06:34:47;;;;;;;3.50;1.75;;;;;;;24.53;100.00;101752.84;2614726;36;20046;-50
2022/07/19 06:37:15;;;;;;;2.92;1.90;;;;;;;24.74;100.00;101755.50;2615213;36;20073;-46
2022/07/19 06:39:43;;;;;;;6.38;2.08;;;;;;;25.00;100.00;101757.44;2614951;31;20038;-48
2022/07/19 06:42:12;;;;;;;6.10;2.30;;;;;;;25.33;100.00;101747.50;2614886;31;20034;-48
2022/07/19 06:44:40;;;;;;;2.75;1.98;;;;;;;25.71;99.39;101741.31;2614698;36;20030;-48
2022/07/19 06:47:08;;;;;;;5.88;2.05;;;;;;;25.84;100.00;101752.31;2615120;36;20030;-48
2022/07/19 06:49:37;;;;;;;4.20;2.25;;;;;;;25.89;100.00;101752.50;2615304;36;20058;-47
2022/07/19 06:52:08;;;;;;;4.10;2.35;;;;;;;26.23;100.00;101763.44;2614796;36;20544;-48
2022/07/19 06:54:36;;;;;;;2.78;2.15;;;;;;;26.45;100.00;101754.88;2615140;36;20061;-46
2022/07/19 06:57:06;;;;;;;3.80;2.13;;;;;;;26.87;89.85;101747.84;2614497;36;20089;-49
2022/07/19 06:59:34;;;;;;;2.95;2.13;;;;;;;27.01;97.85;101753.25;2616041;36;20515;-49
2022/07/19 07:02:03;;;;;;;4.50;2.30;;;;;;;27.10;90.74;101746.38;2614547;36;20030;-49
2022/07/19 07:04:31;;;;;;;5.65;2.20;;;;;;;27.01;89.89;101748.56;2614229;36;20034;-49
2022/07/19 07:07:00;;;;;;;5.10;2.42;;;;;;;27.37;93.85;101746.16;2614688;36;20042;-47
2022/07/19 07:09:31;;;;;;;2.40;2.20;;;;;;;27.53;84.58;101745.59;2615166;36;20065;-47
2022/07/19 07:11:59;;;;;;;4.95;2.10;;;;;;;27.65;89.23;101744.81;2614945;36;20065;-46
2022/07/19 07:14:27;;;;;;;6.03;2.50;;;;;;;27.88;84.02;101736.69;2615140;36;20077;-51
2022/07/19 07:16:56;;;;;;;3.03;2.20;;;;;;;27.87;81.65;101736.94;2615293;36;20042;-48
2022/07/19 07:19:24;;;;;;;4.20;2.33;;;;;;;27.57;86.20;101737.69;2615280;36;20034;-53
2022/07/19 07:21:52;;;;;;;5.45;1.85;;;;;;;27.41;82.82;101722.53;2615178;36;20630;-56
2022/07/19 07:24:24;;;;;;;3.85;2.50;;;;;;;27.73;84.36;101719.66;2615978;36;20061;-49
2022/07/19 07:26:55;;;;;;;4.28;2.03;;;;;;;28.11;77.40;101730.50;2614715;36;20053;-49
2022/07/19 07:29:23;;;;;;;4.10;2.10;;;;;;;28.18;76.29;101724.00;2614328;31;20034;-48
2022/07/19 07:31:52;;;;;;;4.82;2.15;;;;;;;28.69;73.76;101719.91;2614845;36;20038;-51
2022/07/19 07:34:20;;;;;;;3.15;2.33;;;;;;;28.80;71.12;101721.03;2615032;31;20029;-53
2022/07/19 07:36:48;;;;;;;5.00;2.42;;;;;;;28.88;69.09;101720.69;2614682;36;20039;-46
2022/07/19 07:39:17;;;;;;;2.60;1.90;;;;;;;29.06;73.83;101710.59;2614951;31;20041;-48
2022/07/19 07:41:45;;;;;;;;;;;;;;;29.15;69.01;101711.91;2613513;36;20038;-51
2022/07/19 07:44:18;;;;;;;3.85;2.20;;;;;;;28.98;77.24;101718.16;2614244;36;19950;-50
2022/07/19 07:46:47;;;;;;;3.28;1.88;;;;;;;29.11;74.75;101706.00;2614843;36;20058;-49
2022/07/19 07:49:15;;;;;;;2.95;1.90;;;;;;;29.41;73.07;101701.47;2615054;36;20073;-51
2022/07/19 07:51:43;;;;;;;3.10;1.92;;;;;;;29.44;65.80;101703.75;2614432;36;20034;-51
2022/07/19 07:54:12;;;;;;;3.45;1.95;;;;;;;29.81;62.24;101698.72;2614764;36;20117;-48
2022/07/19 07:56:40;;;;;;;4.68;1.75;;;;;;;29.82;62.44;101694.91;2614994;36;20039;-51
2022/07/19 07:59:08;;;;;;;8.23;2.08;;;;;;;30.09;59.19;101691.56;2614333;36;20539;-55
2022/07/19 08:01:39;;;;;;;3.58;2.20;;;;;;;30.26;61.07;101699.97;2614952;36;20034;-52
2022/07/19 08:04:08;;;;;;;5.03;1.90;;;;;;;30.39;60.95;101688.53;2614293;31;20061;-54
2022/07/19 08:06:36;;;;;;;3.63;1.80;;;;;;;31.07;59.80;101687.81;2614664;36;20579;-50
2022/07/19 08:09:05;;;;;;;6.30;2.17;;;;;;;30.91;58.25;101683.91;2614964;36;20038;-52
2022/07/19 08:11:33;;;;;;;5.82;2.25;;;;;;;31.29;55.84;101687.88;2614481;36;20034;-48
2022/07/19 08:14:01;;;;;;;7.13;2.00;;;;;;;31.16;55.68;101679.88;2615173;36;20048;-51
2022/07/19 08:16:30;;;;;;;4.95;2.05;;;;;;;31.16;57.96;101689.06;2614383;36;20023;-48
2022/07/19 08:19:00;;;;;;;;;;;;;;;31.54;54.45;101681.00;2614877;36;20030;-53
2022/07/19 08:21:29;;;;;;;3.55;1.75;;;;;;;31.82;57.37;101681.91;2614849;36;19961;-50
2022/07/19 08:23:57;;;;;;;;;;;;;;;31.70;56.89;101679.25;2614750;31;20166;-53
2022/07/19 08:26:25;;;;;;;2.88;2.03;;;;;;;32.04;53.55;101677.19;2614120;31;19973;-47
2022/07/19 08:28:53;;;;;;;;;;;;;;;32.07;57.65;101679.44;2615588;36;20405;-48
2022/07/19 08:31:22;;;;;;;4.68;1.80;;;;;;;32.15;51.01;101686.53;2614556;36;19957;-47
2022/07/19 08:33:50;;;;;;;;;;;;;;;31.99;47.86;101682.69;2614682;36;20089;-51
2022/07/19 08:36:20;;;;;;;5.15;1.80;;;;;;;31.59;48.48;101684.69;2614281;36;19954;-47
2022/07/19 08:38:49;;;;;;;3.17;1.90;;;;;;;31.96;47.57;101677.63;2614497;36;20058;-51
2022/07/19 08:41:17;;;;;;;;;;;;;;;32.24;45.39;101679.38;2615561;36;20035;-48
2022/07/19 08:43:46;;;;;;;7.50;1.80;;;;;;;32.58;49.73;101676.38;2615897;31;19973;-51
2022/07/19 08:46:14;;;;;;;;;;;;;;;32.59;45.69;101686.41;2614243;36;20030;-49
2022/07/19 08:48:42;;;;;;;;;;;;;;;32.70;46.13;101681.81;2615114;36;19977;-48
2022/07/19 08:51:11;;;;;;;4.60;1.90;;;;;;;32.70;44.16;101681.81;2614644;36;19953;-55
2022/07/19 08:53:42;;;;;;;8.57;2.15;;;;;;;32.83;48.26;101681.38;2615368;36;20069;-50
2022/07/19 08:58:51;;;;;;;6.65;1.88;;;;;;;33.61;46.11;101667.91;2615609;31;20050;-49
2022/07/19 09:01:19;;;;;;;;;;;;;;;33.49;41.75;101668.97;2615785;36;20035;-48
2022/07/19 09:04:09;;;;;;;3.40;1.90;;;;;;;33.32;41.97;101671.13;2615628;36;19977;-53
2022/07/19 09:06:43;;;;;;;5.22;1.90;;;;;;;33.59;42.93;101664.56;2615134;36;20030;-51
2022/07/19 09:09:16;;;;;;;3.15;1.77;;;;;;;33.77;45.55;101661.31;2615608;36;20544;-49
2022/07/19 09:11:50;;;;;;;5.07;2.10;;;;;;;33.87;45.21;101658.56;2615124;36;20038;-52
2022/07/19 09:14:21;;;;;;;4.22;2.17;;;;;;;33.97;42.07;101663.34;2615015;36;20034;-51
2022/07/19 09:17:00;;;;;;;4.00;2.40;;;;;;;34.03;41.03;101658.59;2615632;36;20034;-50
2022/07/19 09:19:30;;;;;;;7.32;2.20;;;;;;;34.25;47.86;101657.50;2615938;36;20034;-52
2022/07/19 09:22:03;;;;;;;3.95;2.10;;;;;;;33.92;43.65;101652.13;2616377;36;20071;-53
2022/07/19 09:24:37;;;;;;;3.15;1.92;;;;;;;34.13;42.09;101653.03;2616242;31;20444;-47
2022/07/19 09:27:07;;;;;;;4.88;1.92;;;;;;;34.07;41.83;101647.72;2615604;36;20047;-48
2022/07/19 09:29:38;;;;;;;2.95;1.70;;;;;;;33.97;38.31;101649.38;2616226;36;20122;-52
2022/07/19 09:32:12;;;;;;;4.25;1.85;;;;;;;34.08;38.36;101649.41;2615781;31;20031;-48
2022/07/19 09:34:43;;;;;;;3.78;2.00;;;;;;;34.03;37.82;101641.84;2615174;31;20037;-52
2022/07/19 09:37:17;;;;;;;4.00;1.75;;;;;;;34.39;40.43;101644.72;2614772;36;20722;-52
2022/07/19 09:39:52;;;;;;;4.53;2.10;;;;;;;34.37;38.36;101649.75;2615552;36;20038;-48
2022/07/19 09:42:24;;;;;;;4.68;2.42;;;;;;;34.67;37.72;101637.72;2615060;36;20054;-50
2022/07/19 09:45:00;;;;;;;6.50;1.92;;;;;;;34.77;37.79;101638.84;2615493;36;20041;-48
2022/07/19 09:47:35;;;;;;;4.35;2.20;;;;;;;34.86;38.13;101637.19;2615442;36;20065;-48
2022/07/19 09:50:06;;;;;;;2.60;1.90;;;;;;;34.93;37.02;101637.75;2615821;36;20567;-51
2022/07/19 09:52:36;;;;;;;3.80;1.98;;;;;;;34.64;37.01;101635.50;2615300;36;20477;-50
2022/07/19 09:55:09;;;;;;;4.68;2.05;;;;;;;34.70;39.13;101627.94;2615040;36;20035;-51
2022/07/19 09:57:44;;;;;;;6.25;2.28;;;;;;;34.61;35.92;101624.88;2614798;36;20034;-47
2022/07/19 10:00:14;;;;;;;4.55;2.08;;;;;;;35.18;37.80;101627.63;2615244;36;20034;-47
2022/07/19 10:02:45;;;;;;;4.72;1.90;;;;;;;35.21;36.44;101622.28;2615387;31;20038;-54
2022/07/19 10:05:15;;;;;;;3.40;1.80;;;;;;;35.38;33.68;101621.13;2614631;31;20034;-53
2022/07/19 10:07:43;;;;;;;3.38;1.90;;;;;;;35.38;32.59;101610.78;2615212;36;20034;-49
2022/07/19 10:10:16;;;;;;;3.60;1.92;;;;;;;35.04;31.37;101611.44;2615298;36;20453;-51
2022/07/19 10:12:46;;;;;;;4.85;1.75;;;;;;;35.38;33.79;101610.78;2615142;36;20034;-51
2022/07/19 10:15:17;;;;;;;5.22;2.20;;;;;;;35.74;33.30;101606.97;2614883;36;20030;-49
2022/07/19 10:17:56;;;;;;;5.15;2.25;;;;;;;35.82;33.24;101603.59;2615019;36;20034;-50
2022/07/19 10:20:28;;;;;;;3.45;2.10;;;;;;;35.99;33.11;101602.38;2614135;36;20038;-49
2022/07/19 10:23:00;;;;;;;4.07;2.55;;;;;;;35.64;30.12;101605.06;2614973;31;20468;-48
2022/07/19 10:25:41;;;;;;;6.22;2.20;;;;;;;35.56;31.12;101612.09;2615519;36;20419;-54
2022/07/19 10:28:29;;;;;;;2.78;1.67;;;;;;;35.68;29.26;101603.38;2614803;36;20034;-50
2022/07/19 10:30:58;;;;;;;2.78;1.75;;;;;;;36.25;31.66;101598.25;2615454;36;20030;-51
2022/07/19 10:33:33;;;;;;;2.92;1.70;;;;;;;36.72;30.89;101592.25;2615254;36;20428;-51
2022/07/19 10:36:31;;;;;;;4.35;1.92;;;;;;;36.46;30.77;101595.31;2614675;36;20038;-48
2022/07/19 10:39:26;;;;;;;3.83;1.92;;;;;;;36.88;29.57;101598.59;2615393;36;20455;-48
2022/07/19 10:42:13;;;;;;;3.90;2.78;;;;;;;36.92;32.26;101596.88;2614551;36;20069;-49
2022/07/19 10:45:14;;;;;;;2.58;2.00;;;;;;;36.94;31.29;101589.81;2614923;36;20030;-47
2022/07/19 10:48:15;;;;;;;4.82;2.17;;;;;;;37.12;33.52;101578.97;2615279;36;20050;-53
2022/07/19 10:50:58;;;;;;;5.88;2.67;;;;;;;37.00;29.96;101576.56;2614894;36;20046;-49
2022/07/19 10:54:05;;;;;;;6.85;3.17;;;;;;;37.30;31.68;101575.38;2615145;36;20030;-55
2022/07/19 10:56:59;;;;;;;4.38;2.70;;;;;;;37.49;32.00;101571.78;2615038;36;20555;-50
2022/07/19 10:59:42;;;;;;;3.60;1.98;;;;;;;37.45;27.01;101565.09;2614884;31;20142;-51
2022/07/19 11:02:24;;;;;;;5.13;2.00;;;;;;;37.39;28.78;101560.69;2614836;31;20034;-49
2022/07/19 11:04:53;;;;;;;3.75;1.90;;;;;;;37.37;26.76;101557.34;2614670;36;20038;-54
2022/07/19 11:07:24;;;;;;;3.53;1.88;;;;;;;37.61;26.06;101563.75;2615296;31;20147;-48
2022/07/19 11:09:56;;;;;;;5.18;2.25;;;;;;;38.02;29.03;101556.69;2615490;31;20523;-50
2022/07/19 11:12:33;;;;;;;4.57;1.90;;;;;;;37.79;26.53;101559.28;2614778;36;20050;-50
2022/07/19 11:15:08;;;;;;;2.58;2.03;;;;;;;37.92;30.01;101563.31;2614740;36;20038;-49
2022/07/19 11:17:37;;;;;;;4.85;1.70;;;;;;;37.82;25.98;101555.84;2615165;36;20038;-54
2022/07/19 11:20:12;;;;;;;2.17;1.50;;;;;;;37.95;26.64;101559.06;2615154;36;20038;-52
2022/07/19 11:22:43;;;;;;;2.15;1.58;;;;;;;38.34;26.58;101553.09;2614644;31;20613;-52
2022/07/19 11:25:12;;;;;;;2.97;1.60;;;;;;;38.35;26.11;101551.94;2614883;36;20038;-51
2022/07/19 11:27:43;;;;;;;3.83;1.52;;;;;;;38.46;27.29;101551.75;2613687;36;20034;-54
2022/07/19 11:30:15;;;;;;;2.55;1.65;;;;;;;38.06;26.58;101545.66;2615318;31;20046;-56
2022/07/19 11:32:54;;;;;;;6.20;2.00;;;;;;;37.95;28.71;101554.25;2614476;36;20385;-49
2022/07/19 11:35:22;;;;;;;4.03;1.70;;;;;;;37.80;25.81;101555.34;2614820;36;20030;-54
2022/07/19 11:37:53;;;;;;;3.78;2.00;;;;;;;37.68;27.18;101541.72;2614236;36;20035;-51
2022/07/19 11:40:23;;;;;;;3.00;1.60;;;;;;;38.08;25.43;101546.22;2613820;36;20037;-51
2022/07/19 11:42:52;;;;;;;2.42;1.30;;;;;;;37.73;27.48;101535.22;2614656;36;20042;-50